sensor_id;sensor_type;location;lat;lon;timestamp;P1;durP1;ratioP1;P2;durP2;ratioP2
40729;SDS011;26418;50.070;8.436;2023-02-28T00:00:07;4.53;;;2.38;;
40729;SDS011;26418;50.070;8.436;2023-02-28T00:02:40;5.40;;;2.42;;
40729;SDS011;26418;50.070;8.436;2023-02-28T00:05:07;5.05;;;2.03;;
40729;SDS011;26418;50.070;8.436;2023-02-28T00:07:35;6.00;;;2.47;;
40729;SDS011;26418;50.070;8.436;2023-02-28T00:10:01;3.90;;;2.33;;
40729;SDS011;26418;50.070;8.436;2023-02-28T00:12:26;3.35;;;1.83;;
40729;SDS011;26418;50.070;8.436;2023-02-28T00:14:52;4.93;;;2.35;;
40729;SDS011;26418;50.070;8.436;2023-02-28T00:17:17;4.63;;;2.33;;
40729;SDS011;26418;50.070;8.436;2023-02-28T00:19:45;3.33;;;2.38;;
40729;SDS011;26418;50.070;8.436;2023-02-28T00:22:14;4.47;;;2.42;;
40729;SDS011;26418;50.070;8.436;2023-02-28T00:24:41;3.92;;;2.47;;
40729;SDS011;26418;50.070;8.436;2023-02-28T00:27:06;5.50;;;2.70;;
40729;SDS011;26418;50.070;8.436;2023-02-28T00:29:31;3.72;;;2.33;;
40729;SDS011;26418;50.070;8.436;2023-02-28T00:31:57;3.05;;;2.40;;
40729;SDS011;26418;50.070;8.436;2023-02-28T00:34:22;5.78;;;2.75;;
40729;SDS011;26418;50.070;8.436;2023-02-28T00:36:47;5.57;;;2.92;;
40729;SDS011;26418;50.070;8.436;2023-02-28T00:39:15;3.47;;;2.47;;
40729;SDS011;26418;50.070;8.436;2023-02-28T00:41:41;4.15;;;2.67;;
40729;SDS011;26418;50.070;8.436;2023-02-28T00:44:07;3.65;;;2.65;;
40729;SDS011;26418;50.070;8.436;2023-02-28T00:46:32;3.30;;;2.42;;
40729;SDS011;26418;50.070;8.436;2023-02-28T00:48:58;5.13;;;3.38;;
40729;SDS011;26418;50.070;8.436;2023-02-28T00:51:23;5.47;;;3.03;;
40729;SDS011;26418;50.070;8.436;2023-02-28T00:53:48;4.60;;;2.95;;
40729;SDS011;26418;50.070;8.436;2023-02-28T00:56:16;4.95;;;2.83;;
40729;SDS011;26418;50.070;8.436;2023-02-28T00:58:42;5.15;;;3.10;;
40729;SDS011;26418;50.070;8.436;2023-02-28T01:01:07;5.38;;;3.00;;
40729;SDS011;26418;50.070;8.436;2023-02-28T01:03:32;3.85;;;2.67;;
40729;SDS011;26418;50.070;8.436;2023-02-28T01:05:58;4.07;;;2.92;;
40729;SDS011;26418;50.070;8.436;2023-02-28T01:08:23;4.57;;;3.30;;
40729;SDS011;26418;50.070;8.436;2023-02-28T01:10:49;5.93;;;2.95;;
40729;SDS011;26418;50.070;8.436;2023-02-28T01:13:15;4.90;;;3.03;;
40729;SDS011;26418;50.070;8.436;2023-02-28T01:15:41;5.35;;;2.83;;
40729;SDS011;26418;50.070;8.436;2023-02-28T01:18:10;5.22;;;3.72;;
40729;SDS011;26418;50.070;8.436;2023-02-28T01:20:36;5.47;;;3.20;;
40729;SDS011;26418;50.070;8.436;2023-02-28T01:23:02;6.55;;;3.55;;
40729;SDS011;26418;50.070;8.436;2023-02-28T01:25:28;5.93;;;4.03;;
40729;SDS011;26418;50.070;8.436;2023-02-28T01:27:53;6.28;;;3.35;;
40729;SDS011;26418;50.070;8.436;2023-02-28T01:30:19;5.13;;;3.17;;
40729;SDS011;26418;50.070;8.436;2023-02-28T01:32:44;8.45;;;4.45;;
40729;SDS011;26418;50.070;8.436;2023-02-28T01:35:09;5.32;;;3.40;;
40729;SDS011;26418;50.070;8.436;2023-02-28T01:37:35;5.45;;;3.67;;
40729;SDS011;26418;50.070;8.436;2023-02-28T01:40:00;6.15;;;3.83;;
40729;SDS011;26418;50.070;8.436;2023-02-28T01:42:26;5.80;;;3.70;;
40729;SDS011;26418;50.070;8.436;2023-02-28T01:44:59;6.00;;;3.90;;
40729;SDS011;26418;50.070;8.436;2023-02-28T01:47:32;6.30;;;3.60;;
40729;SDS011;26418;50.070;8.436;2023-02-28T01:50:01;5.75;;;3.55;;
40729;SDS011;26418;50.070;8.436;2023-02-28T01:52:29;7.47;;;4.45;;
40729;SDS011;26418;50.070;8.436;2023-02-28T01:54:56;7.85;;;3.95;;
40729;SDS011;26418;50.070;8.436;2023-02-28T01:57:26;7.30;;;3.72;;
40729;SDS011;26418;50.070;8.436;2023-02-28T02:02:29;7.38;;;4.00;;
40729;SDS011;26418;50.070;8.436;2023-02-28T02:05:18;7.25;;;4.68;;
40729;SDS011;26418;50.070;8.436;2023-02-28T02:07:46;4.70;;;3.63;;
40729;SDS011;26418;50.070;8.436;2023-02-28T02:10:16;7.30;;;3.92;;
40729;SDS011;26418;50.070;8.436;2023-02-28T02:13:00;8.93;;;4.15;;
40729;SDS011;26418;50.070;8.436;2023-02-28T02:15:36;7.15;;;4.07;;
40729;SDS011;26418;50.070;8.436;2023-02-28T02:21:16;6.85;;;3.92;;
40729;SDS011;26418;50.070;8.436;2023-02-28T02:26:43;7.75;;;4.30;;
40729;SDS011;26418;50.070;8.436;2023-02-28T02:32:16;5.00;;;3.70;;
40729;SDS011;26418;50.070;8.436;2023-02-28T02:40:55;4.65;;;3.05;;
40729;SDS011;26418;50.070;8.436;2023-02-28T02:43:46;6.60;;;3.80;;
40729;SDS011;26418;50.070;8.436;2023-02-28T02:46:34;7.60;;;3.53;;
40729;SDS011;26418;50.070;8.436;2023-02-28T02:49:05;5.72;;;3.40;;
40729;SDS011;26418;50.070;8.436;2023-02-28T02:51:34;5.22;;;3.28;;
40729;SDS011;26418;50.070;8.436;2023-02-28T02:54:08;7.47;;;3.47;;
40729;SDS011;26418;50.070;8.436;2023-02-28T02:56:43;6.93;;;4.00;;
40729;SDS011;26418;50.070;8.436;2023-02-28T02:59:12;5.60;;;3.15;;
40729;SDS011;26418;50.070;8.436;2023-02-28T03:01:46;5.28;;;3.35;;
40729;SDS011;26418;50.070;8.436;2023-02-28T03:04:19;6.03;;;3.47;;
40729;SDS011;26418;50.070;8.436;2023-02-28T03:06:46;5.78;;;3.17;;
40729;SDS011;26418;50.070;8.436;2023-02-28T03:09:12;6.07;;;3.72;;
40729;SDS011;26418;50.070;8.436;2023-02-28T03:11:38;5.90;;;3.20;;
40729;SDS011;26418;50.070;8.436;2023-02-28T03:16:55;8.27;;;3.03;;
40729;SDS011;26418;50.070;8.436;2023-02-28T03:20:15;6.05;;;3.38;;
40729;SDS011;26418;50.070;8.436;2023-02-28T03:22:39;4.65;;;3.40;;
40729;SDS011;26418;50.070;8.436;2023-02-28T03:25:31;4.13;;;3.15;;
40729;SDS011;26418;50.070;8.436;2023-02-28T03:28:12;4.78;;;3.20;;
40729;SDS011;26418;50.070;8.436;2023-02-28T03:33:50;4.43;;;2.95;;
40729;SDS011;26418;50.070;8.436;2023-02-28T03:36:22;4.30;;;2.65;;
40729;SDS011;26418;50.070;8.436;2023-02-28T03:41:23;6.05;;;3.08;;
40729;SDS011;26418;50.070;8.436;2023-02-28T03:44:03;6.78;;;2.85;;
40729;SDS011;26418;50.070;8.436;2023-02-28T03:46:39;4.88;;;3.13;;
40729;SDS011;26418;50.070;8.436;2023-02-28T03:49:17;4.93;;;3.30;;
40729;SDS011;26418;50.070;8.436;2023-02-28T03:51:55;5.55;;;3.45;;
40729;SDS011;26418;50.070;8.436;2023-02-28T03:54:31;4.07;;;3.05;;
40729;SDS011;26418;50.070;8.436;2023-02-28T03:57:02;7.18;;;3.92;;
40729;SDS011;26418;50.070;8.436;2023-02-28T03:59:46;4.32;;;3.42;;
40729;SDS011;26418;50.070;8.436;2023-02-28T04:02:16;5.22;;;3.08;;
40729;SDS011;26418;50.070;8.436;2023-02-28T04:04:41;5.57;;;3.28;;
40729;SDS011;26418;50.070;8.436;2023-02-28T04:07:13;6.93;;;3.58;;
40729;SDS011;26418;50.070;8.436;2023-02-28T04:09:39;5.82;;;3.88;;
40729;SDS011;26418;50.070;8.436;2023-02-28T04:12:04;5.95;;;3.38;;
40729;SDS011;26418;50.070;8.436;2023-02-28T04:14:30;7.97;;;3.63;;
40729;SDS011;26418;50.070;8.436;2023-02-28T04:16:55;5.70;;;3.67;;
40729;SDS011;26418;50.070;8.436;2023-02-28T04:19:21;5.25;;;3.17;;
40729;SDS011;26418;50.070;8.436;2023-02-28T04:21:47;5.32;;;3.58;;
40729;SDS011;26418;50.070;8.436;2023-02-28T04:24:17;6.10;;;3.50;;
40729;SDS011;26418;50.070;8.436;2023-02-28T04:26:45;5.28;;;3.35;;
40729;SDS011;26418;50.070;8.436;2023-02-28T04:29:12;6.38;;;3.22;;
40729;SDS011;26418;50.070;8.436;2023-02-28T04:31:42;6.60;;;3.33;;
40729;SDS011;26418;50.070;8.436;2023-02-28T04:34:07;4.72;;;3.17;;
40729;SDS011;26418;50.070;8.436;2023-02-28T04:36:33;4.97;;;3.17;;
40729;SDS011;26418;50.070;8.436;2023-02-28T04:38:58;7.25;;;3.85;;
40729;SDS011;26418;50.070;8.436;2023-02-28T04:41:23;4.53;;;3.22;;
40729;SDS011;26418;50.070;8.436;2023-02-28T04:43:50;4.15;;;3.03;;
40729;SDS011;26418;50.070;8.436;2023-02-28T04:46:16;5.07;;;3.30;;
40729;SDS011;26418;50.070;8.436;2023-02-28T04:48:42;6.30;;;3.28;;
40729;SDS011;26418;50.070;8.436;2023-02-28T04:51:09;4.50;;;3.15;;
40729;SDS011;26418;50.070;8.436;2023-02-28T04:53:37;3.67;;;2.67;;
40729;SDS011;26418;50.070;8.436;2023-02-28T04:56:04;7.35;;;3.63;;
40729;SDS011;26418;50.070;8.436;2023-02-28T04:58:31;4.60;;;2.95;;
40729;SDS011;26418;50.070;8.436;2023-02-28T05:01:04;7.90;;;2.85;;
40729;SDS011;26418;50.070;8.436;2023-02-28T05:03:38;5.13;;;3.15;;
40729;SDS011;26418;50.070;8.436;2023-02-28T05:06:05;7.30;;;3.33;;
40729;SDS011;26418;50.070;8.436;2023-02-28T05:08:31;3.83;;;2.70;;
40729;SDS011;26418;50.070;8.436;2023-02-28T05:10:56;3.33;;;2.30;;
40729;SDS011;26418;50.070;8.436;2023-02-28T05:13:22;4.00;;;2.80;;
40729;SDS011;26418;50.070;8.436;2023-02-28T05:15:47;7.72;;;3.42;;
40729;SDS011;26418;50.070;8.436;2023-02-28T05:18:13;4.45;;;2.67;;
40729;SDS011;26418;50.070;8.436;2023-02-28T05:20:38;3.33;;;2.35;;
40729;SDS011;26418;50.070;8.436;2023-02-28T05:23:03;4.80;;;2.72;;
40729;SDS011;26418;50.070;8.436;2023-02-28T05:25:29;3.65;;;2.42;;
40729;SDS011;26418;50.070;8.436;2023-02-28T05:27:54;5.13;;;2.85;;
40729;SDS011;26418;50.070;8.436;2023-02-28T05:30:19;3.40;;;2.40;;
40729;SDS011;26418;50.070;8.436;2023-02-28T05:32:48;6.03;;;2.60;;
40729;SDS011;26418;50.070;8.436;2023-02-28T05:35:15;4.10;;;2.55;;
40729;SDS011;26418;50.070;8.436;2023-02-28T05:37:40;5.63;;;2.67;;
40729;SDS011;26418;50.070;8.436;2023-02-28T05:40:06;4.32;;;2.55;;
40729;SDS011;26418;50.070;8.436;2023-02-28T05:42:35;4.43;;;2.90;;
40729;SDS011;26418;50.070;8.436;2023-02-28T05:45:00;4.15;;;2.38;;
40729;SDS011;26418;50.070;8.436;2023-02-28T05:47:26;6.30;;;2.97;;
40729;SDS011;26418;50.070;8.436;2023-02-28T05:49:51;6.82;;;2.70;;
40729;SDS011;26418;50.070;8.436;2023-02-28T05:52:17;3.42;;;2.67;;
40729;SDS011;26418;50.070;8.436;2023-02-28T05:54:42;3.63;;;2.30;;
40729;SDS011;26418;50.070;8.436;2023-02-28T05:57:08;4.53;;;2.40;;
40729;SDS011;26418;50.070;8.436;2023-02-28T05:59:33;4.53;;;2.45;;
40729;SDS011;26418;50.070;8.436;2023-02-28T06:01:58;3.65;;;2.67;;
40729;SDS011;26418;50.070;8.436;2023-02-28T06:04:24;4.40;;;2.70;;
40729;SDS011;26418;50.070;8.436;2023-02-28T06:06:49;5.22;;;2.35;;
40729;SDS011;26418;50.070;8.436;2023-02-28T06:09:16;7.03;;;2.78;;
40729;SDS011;26418;50.070;8.436;2023-02-28T06:11:43;4.05;;;2.50;;
40729;SDS011;26418;50.070;8.436;2023-02-28T06:14:16;3.72;;;2.67;;
40729;SDS011;26418;50.070;8.436;2023-02-28T06:16:42;4.68;;;2.60;;
40729;SDS011;26418;50.070;8.436;2023-02-28T06:19:08;3.47;;;2.30;;
40729;SDS011;26418;50.070;8.436;2023-02-28T06:21:34;4.40;;;2.35;;
40729;SDS011;26418;50.070;8.436;2023-02-28T06:23:59;7.47;;;2.70;;
40729;SDS011;26418;50.070;8.436;2023-02-28T06:26:25;5.45;;;3.03;;
40729;SDS011;26418;50.070;8.436;2023-02-28T06:28:51;4.38;;;2.03;;
40729;SDS011;26418;50.070;8.436;2023-02-28T06:31:16;8.80;;;2.80;;
40729;SDS011;26418;50.070;8.436;2023-02-28T06:33:43;4.82;;;2.85;;
40729;SDS011;26418;50.070;8.436;2023-02-28T06:36:10;4.68;;;3.00;;
40729;SDS011;26418;50.070;8.436;2023-02-28T06:38:37;4.30;;;2.42;;
40729;SDS011;26418;50.070;8.436;2023-02-28T06:41:04;4.78;;;2.42;;
40729;SDS011;26418;50.070;8.436;2023-02-28T06:43:31;7.38;;;2.60;;
40729;SDS011;26418;50.070;8.436;2023-02-28T06:45:58;6.05;;;2.67;;
40729;SDS011;26418;50.070;8.436;2023-02-28T06:48:26;3.88;;;2.55;;
40729;SDS011;26418;50.070;8.436;2023-02-28T06:50:52;4.50;;;2.88;;
40729;SDS011;26418;50.070;8.436;2023-02-28T06:53:17;6.50;;;2.85;;
40729;SDS011;26418;50.070;8.436;2023-02-28T06:55:43;6.43;;;3.30;;
40729;SDS011;26418;50.070;8.436;2023-02-28T06:58:09;6.03;;;3.22;;
40729;SDS011;26418;50.070;8.436;2023-02-28T07:00:44;7.22;;;2.90;;
40729;SDS011;26418;50.070;8.436;2023-02-28T07:03:10;5.47;;;2.88;;
40729;SDS011;26418;50.070;8.436;2023-02-28T07:05:37;7.07;;;2.97;;
40729;SDS011;26418;50.070;8.436;2023-02-28T07:08:04;5.00;;;2.78;;
40729;SDS011;26418;50.070;8.436;2023-02-28T07:10:31;4.95;;;2.60;;
40729;SDS011;26418;50.070;8.436;2023-02-28T07:12:57;6.78;;;3.58;;
40729;SDS011;26418;50.070;8.436;2023-02-28T07:15:23;8.27;;;2.90;;
40729;SDS011;26418;50.070;8.436;2023-02-28T07:17:48;6.10;;;3.10;;
40729;SDS011;26418;50.070;8.436;2023-02-28T07:20:13;8.23;;;3.25;;
40729;SDS011;26418;50.070;8.436;2023-02-28T07:22:39;4.40;;;3.33;;
40729;SDS011;26418;50.070;8.436;2023-02-28T07:25:04;6.65;;;3.45;;
40729;SDS011;26418;50.070;8.436;2023-02-28T07:27:30;7.20;;;3.15;;
40729;SDS011;26418;50.070;8.436;2023-02-28T07:29:55;5.97;;;3.67;;
40729;SDS011;26418;50.070;8.436;2023-02-28T07:32:21;5.68;;;3.28;;
40729;SDS011;26418;50.070;8.436;2023-02-28T07:34:47;10.05;;;3.15;;
40729;SDS011;26418;50.070;8.436;2023-02-28T07:37:13;4.50;;;2.72;;
40729;SDS011;26418;50.070;8.436;2023-02-28T07:39:39;5.80;;;3.10;;
40729;SDS011;26418;50.070;8.436;2023-02-28T07:42:07;6.95;;;3.58;;
40729;SDS011;26418;50.070;8.436;2023-02-28T07:44:36;4.93;;;3.47;;
40729;SDS011;26418;50.070;8.436;2023-02-28T07:47:05;6.47;;;3.55;;
40729;SDS011;26418;50.070;8.436;2023-02-28T07:49:37;6.20;;;3.42;;
40729;SDS011;26418;50.070;8.436;2023-02-28T07:52:03;8.93;;;3.45;;
40729;SDS011;26418;50.070;8.436;2023-02-28T07:54:29;7.38;;;3.80;;
40729;SDS011;26418;50.070;8.436;2023-02-28T07:56:54;5.78;;;3.50;;
40729;SDS011;26418;50.070;8.436;2023-02-28T07:59:20;8.05;;;3.50;;
40729;SDS011;26418;50.070;8.436;2023-02-28T08:01:45;6.13;;;3.42;;
40729;SDS011;26418;50.070;8.436;2023-02-28T08:04:10;5.25;;;3.60;;
40729;SDS011;26418;50.070;8.436;2023-02-28T08:06:36;5.63;;;3.78;;
40729;SDS011;26418;50.070;8.436;2023-02-28T08:09:01;9.25;;;3.90;;
40729;SDS011;26418;50.070;8.436;2023-02-28T08:11:27;7.18;;;3.80;;
40729;SDS011;26418;50.070;8.436;2023-02-28T08:13:52;4.22;;;3.40;;
40729;SDS011;26418;50.070;8.436;2023-02-28T08:16:19;4.93;;;3.30;;
40729;SDS011;26418;50.070;8.436;2023-02-28T08:18:47;8.32;;;3.60;;
40729;SDS011;26418;50.070;8.436;2023-02-28T08:21:13;9.40;;;3.67;;
40729;SDS011;26418;50.070;8.436;2023-02-28T08:23:39;5.82;;;3.13;;
40729;SDS011;26418;50.070;8.436;2023-02-28T08:26:04;7.47;;;3.30;;
40729;SDS011;26418;50.070;8.436;2023-02-28T08:28:30;6.75;;;4.28;;
40729;SDS011;26418;50.070;8.436;2023-02-28T08:30:55;4.72;;;3.13;;
40729;SDS011;26418;50.070;8.436;2023-02-28T08:33:21;7.30;;;3.20;;
40729;SDS011;26418;50.070;8.436;2023-02-28T08:35:47;6.70;;;3.63;;
40729;SDS011;26418;50.070;8.436;2023-02-28T08:38:13;7.35;;;3.92;;
40729;SDS011;26418;50.070;8.436;2023-02-28T08:40:38;5.72;;;3.85;;
40729;SDS011;26418;50.070;8.436;2023-02-28T08:43:03;7.65;;;3.88;;
40729;SDS011;26418;50.070;8.436;2023-02-28T08:45:29;7.63;;;4.20;;
40729;SDS011;26418;50.070;8.436;2023-02-28T08:47:54;6.15;;;3.90;;
40729;SDS011;26418;50.070;8.436;2023-02-28T08:50:21;6.28;;;3.92;;
40729;SDS011;26418;50.070;8.436;2023-02-28T08:52:46;7.03;;;3.58;;
40729;SDS011;26418;50.070;8.436;2023-02-28T08:55:12;6.53;;;3.50;;
40729;SDS011;26418;50.070;8.436;2023-02-28T08:57:37;8.95;;;4.45;;
40729;SDS011;26418;50.070;8.436;2023-02-28T09:00:03;7.82;;;4.00;;
40729;SDS011;26418;50.070;8.436;2023-02-28T09:02:29;6.97;;;3.42;;
40729;SDS011;26418;50.070;8.436;2023-02-28T09:04:56;5.55;;;3.28;;
40729;SDS011;26418;50.070;8.436;2023-02-28T09:07:21;6.05;;;3.05;;
40729;SDS011;26418;50.070;8.436;2023-02-28T09:09:47;5.82;;;3.20;;
40729;SDS011;26418;50.070;8.436;2023-02-28T09:12:26;5.45;;;3.55;;
40729;SDS011;26418;50.070;8.436;2023-02-28T09:14:53;5.63;;;2.80;;
40729;SDS011;26418;50.070;8.436;2023-02-28T09:17:19;5.60;;;3.25;;
40729;SDS011;26418;50.070;8.436;2023-02-28T09:19:45;5.47;;;3.53;;
40729;SDS011;26418;50.070;8.436;2023-02-28T09:22:13;5.95;;;3.63;;
40729;SDS011;26418;50.070;8.436;2023-02-28T09:24:38;8.75;;;3.35;;
40729;SDS011;26418;50.070;8.436;2023-02-28T09:27:04;5.57;;;3.80;;
40729;SDS011;26418;50.070;8.436;2023-02-28T09:29:33;5.00;;;3.00;;
40729;SDS011;26418;50.070;8.436;2023-02-28T09:31:59;7.15;;;4.03;;
40729;SDS011;26418;50.070;8.436;2023-02-28T09:34:26;7.95;;;3.83;;
40729;SDS011;26418;50.070;8.436;2023-02-28T09:36:52;5.95;;;3.20;;
40729;SDS011;26418;50.070;8.436;2023-02-28T09:39:21;6.80;;;3.47;;
40729;SDS011;26418;50.070;8.436;2023-02-28T09:41:48;11.48;;;4.20;;
40729;SDS011;26418;50.070;8.436;2023-02-28T09:44:38;6.97;;;3.30;;
40729;SDS011;26418;50.070;8.436;2023-02-28T09:47:08;7.60;;;4.13;;
40729;SDS011;26418;50.070;8.436;2023-02-28T09:49:44;5.65;;;3.47;;
40729;SDS011;26418;50.070;8.436;2023-02-28T09:52:14;6.30;;;3.65;;
40729;SDS011;26418;50.070;8.436;2023-02-28T09:54:43;6.03;;;3.60;;
40729;SDS011;26418;50.070;8.436;2023-02-28T09:59:47;5.68;;;3.80;;
40729;SDS011;26418;50.070;8.436;2023-02-28T10:02:39;7.03;;;3.42;;
40729;SDS011;26418;50.070;8.436;2023-02-28T10:05:14;4.72;;;3.53;;
40729;SDS011;26418;50.070;8.436;2023-02-28T10:16:14;4.72;;;3.35;;
40729;SDS011;26418;50.070;8.436;2023-02-28T10:19:03;6.85;;;3.83;;
40729;SDS011;26418;50.070;8.436;2023-02-28T10:21:55;6.90;;;4.10;;
40729;SDS011;26418;50.070;8.436;2023-02-28T10:24:40;6.28;;;3.67;;
40729;SDS011;26418;50.070;8.436;2023-02-28T10:27:15;5.25;;;3.17;;
40729;SDS011;26418;50.070;8.436;2023-02-28T10:29:49;4.68;;;3.00;;
40729;SDS011;26418;50.070;8.436;2023-02-28T10:32:17;5.13;;;3.25;;
40729;SDS011;26418;50.070;8.436;2023-02-28T10:34:44;6.95;;;3.78;;
40729;SDS011;26418;50.070;8.436;2023-02-28T10:37:15;4.03;;;3.10;;
40729;SDS011;26418;50.070;8.436;2023-02-28T10:39:45;6.15;;;3.60;;
40729;SDS011;26418;50.070;8.436;2023-02-28T10:44:52;9.25;;;4.15;;
40729;SDS011;26418;50.070;8.436;2023-02-28T10:47:30;5.32;;;3.83;;
40729;SDS011;26418;50.070;8.436;2023-02-28T10:49:58;6.57;;;3.83;;
40729;SDS011;26418;50.070;8.436;2023-02-28T10:52:36;4.95;;;3.78;;
40729;SDS011;26418;50.070;8.436;2023-02-28T10:55:23;8.82;;;4.50;;
40729;SDS011;26418;50.070;8.436;2023-02-28T10:57:50;6.22;;;3.58;;
40729;SDS011;26418;50.070;8.436;2023-02-28T11:00:18;7.72;;;4.07;;
40729;SDS011;26418;50.070;8.436;2023-02-28T11:02:46;6.25;;;4.28;;
40729;SDS011;26418;50.070;8.436;2023-02-28T11:05:25;5.93;;;3.85;;
40729;SDS011;26418;50.070;8.436;2023-02-28T11:07:54;6.72;;;3.92;;
40729;SDS011;26418;50.070;8.436;2023-02-28T11:10:23;6.55;;;3.55;;
40729;SDS011;26418;50.070;8.436;2023-02-28T11:15:27;5.13;;;3.60;;
40729;SDS011;26418;50.070;8.436;2023-02-28T11:17:58;6.18;;;3.72;;
40729;SDS011;26418;50.070;8.436;2023-02-28T11:20:26;6.05;;;3.20;;
40729;SDS011;26418;50.070;8.436;2023-02-28T11:22:54;6.03;;;4.45;;
40729;SDS011;26418;50.070;8.436;2023-02-28T11:28:03;7.43;;;3.45;;
40729;SDS011;26418;50.070;8.436;2023-02-28T11:35:53;7.07;;;3.47;;
40729;SDS011;26418;50.070;8.436;2023-02-28T11:43:22;9.95;;;4.82;;
40729;SDS011;26418;50.070;8.436;2023-02-28T11:49:07;9.88;;;4.25;;
40729;SDS011;26418;50.070;8.436;2023-02-28T11:51:58;5.43;;;4.15;;
40729;SDS011;26418;50.070;8.436;2023-02-28T11:54:44;7.00;;;3.85;;
40729;SDS011;26418;50.070;8.436;2023-02-28T12:00:25;6.03;;;4.03;;
40729;SDS011;26418;50.070;8.436;2023-02-28T12:05:32;8.10;;;4.40;;
40729;SDS011;26418;50.070;8.436;2023-02-28T12:08:07;6.88;;;3.72;;
40729;SDS011;26418;50.070;8.436;2023-02-28T12:13:26;8.35;;;4.22;;
40729;SDS011;26418;50.070;8.436;2023-02-28T12:16:18;7.18;;;4.55;;
40729;SDS011;26418;50.070;8.436;2023-02-28T12:27:33;9.50;;;4.93;;
40729;SDS011;26418;50.070;8.436;2023-02-28T12:30:03;8.98;;;5.00;;
40729;SDS011;26418;50.070;8.436;2023-02-28T12:33:08;7.07;;;5.13;;
40729;SDS011;26418;50.070;8.436;2023-02-28T12:35:47;7.57;;;5.22;;
40729;SDS011;26418;50.070;8.436;2023-02-28T12:38:19;7.07;;;4.47;;
40729;SDS011;26418;50.070;8.436;2023-02-28T12:40:52;10.70;;;5.20;;
40729;SDS011;26418;50.070;8.436;2023-02-28T12:46:41;7.80;;;4.47;;
40729;SDS011;26418;50.070;8.436;2023-02-28T12:49:16;9.70;;;5.38;;
40729;SDS011;26418;50.070;8.436;2023-02-28T12:51:46;8.82;;;4.57;;
40729;SDS011;26418;50.070;8.436;2023-02-28T12:59:59;8.70;;;4.78;;
40729;SDS011;26418;50.070;8.436;2023-02-28T13:08:15;9.73;;;4.68;;
40729;SDS011;26418;50.070;8.436;2023-02-28T13:10:42;7.82;;;5.28;;
40729;SDS011;26418;50.070;8.436;2023-02-28T13:13:13;9.65;;;5.57;;
40729;SDS011;26418;50.070;8.436;2023-02-28T13:15:41;9.20;;;5.00;;
40729;SDS011;26418;50.070;8.436;2023-02-28T13:18:33;10.98;;;5.55;;
40729;SDS011;26418;50.070;8.436;2023-02-28T13:21:08;8.25;;;5.22;;
40729;SDS011;26418;50.070;8.436;2023-02-28T13:23:55;7.95;;;4.78;;
40729;SDS011;26418;50.070;8.436;2023-02-28T13:28:59;6.70;;;5.03;;
40729;SDS011;26418;50.070;8.436;2023-02-28T13:31:26;9.07;;;5.07;;
40729;SDS011;26418;50.070;8.436;2023-02-28T13:36:30;7.97;;;5.45;;
40729;SDS011;26418;50.070;8.436;2023-02-28T13:39:01;7.95;;;4.80;;
40729;SDS011;26418;50.070;8.436;2023-02-28T13:46:34;10.77;;;5.00;;
40729;SDS011;26418;50.070;8.436;2023-02-28T13:51:46;9.20;;;5.55;;
40729;SDS011;26418;50.070;8.436;2023-02-28T13:56:48;5.70;;;4.53;;
40729;SDS011;26418;50.070;8.436;2023-02-28T13:59:50;7.20;;;5.05;;
40729;SDS011;26418;50.070;8.436;2023-02-28T14:05:12;10.10;;;5.38;;
40729;SDS011;26418;50.070;8.436;2023-02-28T14:07:45;7.65;;;5.07;;
40729;SDS011;26418;50.070;8.436;2023-02-28T14:16:05;8.75;;;5.00;;
40729;SDS011;26418;50.070;8.436;2023-02-28T14:18:37;9.15;;;5.30;;
40729;SDS011;26418;50.070;8.436;2023-02-28T14:26:51;11.43;;;5.40;;
40729;SDS011;26418;50.070;8.436;2023-02-28T14:37:51;7.63;;;5.35;;
40729;SDS011;26418;50.070;8.436;2023-02-28T14:40:22;10.45;;;5.40;;
40729;SDS011;26418;50.070;8.436;2023-02-28T14:42:57;6.57;;;4.63;;
40729;SDS011;26418;50.070;8.436;2023-02-28T14:45:24;9.60;;;5.68;;
40729;SDS011;26418;50.070;8.436;2023-02-28T14:47:54;9.68;;;4.90;;
40729;SDS011;26418;50.070;8.436;2023-02-28T14:50:31;9.77;;;5.55;;
40729;SDS011;26418;50.070;8.436;2023-02-28T14:53:00;9.48;;;5.72;;
40729;SDS011;26418;50.070;8.436;2023-02-28T14:55:36;7.03;;;5.20;;
40729;SDS011;26418;50.070;8.436;2023-02-28T14:58:05;7.32;;;4.32;;
40729;SDS011;26418;50.070;8.436;2023-02-28T15:00:47;9.63;;;5.53;;
40729;SDS011;26418;50.070;8.436;2023-02-28T15:03:31;9.93;;;5.07;;
40729;SDS011;26418;50.070;8.436;2023-02-28T15:06:00;12.98;;;5.55;;
40729;SDS011;26418;50.070;8.436;2023-02-28T15:09:05;7.93;;;5.25;;
40729;SDS011;26418;50.070;8.436;2023-02-28T15:11:33;8.68;;;5.38;;
40729;SDS011;26418;50.070;8.436;2023-02-28T15:13:58;6.85;;;5.00;;
40729;SDS011;26418;50.070;8.436;2023-02-28T15:16:26;11.45;;;5.40;;
40729;SDS011;26418;50.070;8.436;2023-02-28T15:19:00;9.35;;;5.53;;
40729;SDS011;26418;50.070;8.436;2023-02-28T15:21:28;9.25;;;5.20;;
40729;SDS011;26418;50.070;8.436;2023-02-28T15:24:02;8.52;;;5.18;;
40729;SDS011;26418;50.070;8.436;2023-02-28T15:26:32;10.02;;;5.13;;
40729;SDS011;26418;50.070;8.436;2023-02-28T15:29:01;11.05;;;5.63;;
40729;SDS011;26418;50.070;8.436;2023-02-28T15:31:40;13.18;;;5.63;;
40729;SDS011;26418;50.070;8.436;2023-02-28T15:34:20;10.10;;;5.53;;
40729;SDS011;26418;50.070;8.436;2023-02-28T15:36:54;9.82;;;4.93;;
40729;SDS011;26418;50.070;8.436;2023-02-28T15:39:24;8.27;;;4.63;;
40729;SDS011;26418;50.070;8.436;2023-02-28T15:42:16;10.68;;;5.82;;
40729;SDS011;26418;50.070;8.436;2023-02-28T15:44:44;8.55;;;5.15;;
40729;SDS011;26418;50.070;8.436;2023-02-28T15:47:16;8.55;;;5.40;;
40729;SDS011;26418;50.070;8.436;2023-02-28T15:49:47;8.30;;;5.07;;
40729;SDS011;26418;50.070;8.436;2023-02-28T15:52:16;9.82;;;4.97;;
40729;SDS011;26418;50.070;8.436;2023-02-28T15:54:45;8.63;;;5.00;;
40729;SDS011;26418;50.070;8.436;2023-02-28T15:57:19;10.98;;;5.25;;
40729;SDS011;26418;50.070;8.436;2023-02-28T15:59:54;8.27;;;5.05;;
40729;SDS011;26418;50.070;8.436;2023-02-28T16:02:34;10.45;;;5.50;;
40729;SDS011;26418;50.070;8.436;2023-02-28T16:07:42;10.25;;;5.28;;
40729;SDS011;26418;50.070;8.436;2023-02-28T16:10:10;10.77;;;4.88;;
40729;SDS011;26418;50.070;8.436;2023-02-28T16:12:37;9.70;;;5.53;;
40729;SDS011;26418;50.070;8.436;2023-02-28T16:15:08;7.97;;;4.85;;
40729;SDS011;26418;50.070;8.436;2023-02-28T16:17:41;10.48;;;5.45;;
40729;SDS011;26418;50.070;8.436;2023-02-28T16:20:14;12.23;;;5.00;;
40729;SDS011;26418;50.070;8.436;2023-02-28T16:22:43;7.60;;;4.50;;
40729;SDS011;26418;50.070;8.436;2023-02-28T16:25:16;9.45;;;5.22;;
40729;SDS011;26418;50.070;8.436;2023-02-28T16:27:43;10.23;;;5.03;;
40729;SDS011;26418;50.070;8.436;2023-02-28T16:30:25;7.57;;;5.18;;
40729;SDS011;26418;50.070;8.436;2023-02-28T16:32:52;10.52;;;5.28;;
40729;SDS011;26418;50.070;8.436;2023-02-28T16:35:21;10.65;;;5.53;;
40729;SDS011;26418;50.070;8.436;2023-02-28T16:37:47;7.03;;;4.45;;
40729;SDS011;26418;50.070;8.436;2023-02-28T16:40:16;7.20;;;4.72;;
40729;SDS011;26418;50.070;8.436;2023-02-28T16:42:43;9.68;;;5.50;;
40729;SDS011;26418;50.070;8.436;2023-02-28T16:45:14;9.43;;;5.47;;
40729;SDS011;26418;50.070;8.436;2023-02-28T16:47:44;8.52;;;5.20;;
40729;SDS011;26418;50.070;8.436;2023-02-28T16:50:17;7.18;;;4.82;;
40729;SDS011;26418;50.070;8.436;2023-02-28T16:52:47;7.18;;;4.82;;
40729;SDS011;26418;50.070;8.436;2023-02-28T16:55:14;8.70;;;4.97;;
40729;SDS011;26418;50.070;8.436;2023-02-28T16:57:40;7.47;;;4.93;;
40729;SDS011;26418;50.070;8.436;2023-02-28T17:00:06;14.60;;;5.38;;
40729;SDS011;26418;50.070;8.436;2023-02-28T17:02:33;7.38;;;4.72;;
40729;SDS011;26418;50.070;8.436;2023-02-28T17:04:59;8.27;;;4.80;;
40729;SDS011;26418;50.070;8.436;2023-02-28T17:07:24;10.07;;;5.20;;
40729;SDS011;26418;50.070;8.436;2023-02-28T17:09:50;11.43;;;5.78;;
40729;SDS011;26418;50.070;8.436;2023-02-28T17:12:15;8.75;;;5.22;;